This is the latest recevied weather packets stored in our database for station/object KF6ILA. If no packets are shown the sender has not sent any weather packets the latest 10 day(s).
| Time | Temp. | Humidity | Pressure | Rain* | Wind** | Luminosity | Snow |
|---|---|---|---|---|---|---|---|
| 1788055028 | 24.44° C | 52% | 1014.5 hPa | 0 mm | - | 14 W/m² | - |
| 1788054436 | 26.67° C | 48% | 1014.5 hPa | 0 mm | - | 167 W/m² | - |
| 1788054436 | 25° C | 49% | 1014.5 hPa | 0 mm | - | 46 W/m² | - |
| 1788054435 | 27.22° C | 48% | 1014.6 hPa | 0 mm | - | 264 W/m² | - |
| 1788054435 | 27.22° C | 48% | 1014.6 hPa | 0 mm | - | 299 W/m² | - |
| 1788054435 | 27.22° C | 48% | 1014.7 hPa | 0 mm | - | 281 W/m² | - |
| 1788054434 | 25° C | 51% | 1014.7 hPa | 0 mm | - | 33 W/m² | - |
| 1788054137 | 25° C | 49% | 1014.5 hPa | 0 mm | - | 46 W/m² | - |
| 1788052949 | 26.11° C | 48% | 1014.5 hPa | 0 mm | - | 121 W/m² | - |
| 1788052652 | 26.11° C | 48% | 1014.6 hPa | 0 mm | - | 141 W/m² | - |
| 1788052355 | 26.67° C | 48% | 1014.5 hPa | 0 mm | - | 167 W/m² | - |
| 1788052058 | 26.67° C | 48% | 1014.7 hPa | 0 mm | - | 185 W/m² | - |
| 1788051464 | 26.67° C | 48% | 1014.6 hPa | 0 mm | - | 225 W/m² | - |
| 1788051167 | 27.22° C | 48% | 1014.5 hPa | 0 mm | - | 244 W/m² | - |
| 1788050870 | 27.22° C | 48% | 1014.6 hPa | 0 mm | - | 264 W/m² | - |
| 1788050573 | 27.22° C | 48% | 1014.7 hPa | 0 mm | - | 281 W/m² | - |
| 1788050276 | 27.22° C | 48% | 1014.6 hPa | 0 mm | - | 299 W/m² | - |
| 1788049682 | 27.78° C | 47% | 1014.6 hPa | 0 mm | - | 336 W/m² | - |
| 1788049664 | 28.33° C | 46% | 1014.6 hPa | 0 mm | - | 353 W/m² | - |
| 1788049587 | 28.33° C | 44% | 1014.4 hPa | 0 mm | - | 499 W/m² | - |
| 1788049587 | 29.44° C | 43% | 1014.5 hPa | 0 mm | - | 534 W/m² | - |
| 1788049587 | 28.33° C | 46% | 1014.7 hPa | 0 mm | - | 392 W/m² | - |
| 1788049385 | 28.33° C | 46% | 1014.6 hPa | 0 mm | - | 353 W/m² | - |
| 1788049088 | 28.33° C | 46% | 1014.7 hPa | 0 mm | - | 371 W/m² | - |
| 1788048791 | 28.33° C | 46% | 1014.7 hPa | 0 mm | - | 392 W/m² | - |
* Rain latest hour (hover to see other rain measurements)
** Current wind speed in m/s (hover to see current wind gust speed)